createdAt,value
2023-02-11T00:01:10.251Z,103373.81
2023-02-11T00:03:32.021Z,103370.03
2023-02-11T00:06:03.438Z,103368.34
2023-02-11T00:08:25.781Z,103363.13
2023-02-11T00:10:53.068Z,103357.38
2023-02-11T00:13:14.709Z,103355.72
2023-02-11T00:15:37.265Z,103362.03
2023-02-11T00:17:58.886Z,103358.22
2023-02-11T00:20:21.035Z,103364.53
2023-02-11T00:22:42.812Z,103366.53
2023-02-11T00:25:05.612Z,103365.13
2023-02-11T00:27:27.263Z,103362.63
2023-02-11T00:29:49.587Z,103354.16
2023-02-11T00:32:11.267Z,103342.91
2023-02-11T00:34:33.366Z,103350.56
2023-02-11T00:36:57.242Z,103350.81
2023-02-11T00:39:18.823Z,103350.00
2023-02-11T00:41:40.621Z,103351.88
2023-02-11T00:44:03.002Z,103356.81
2023-02-11T00:46:25.024Z,103361.22
2023-02-11T00:48:46.785Z,103357.13
2023-02-11T00:51:08.998Z,103345.94
2023-02-11T00:53:31.751Z,103363.22
2023-02-11T00:55:53.472Z,103352.81
2023-02-11T00:58:15.168Z,103363.53
2023-02-11T01:00:37.258Z,103357.72
2023-02-11T01:02:59.014Z,103363.22
2023-02-11T01:05:21.324Z,103364.28
2023-02-11T01:07:43.368Z,103368.34
2023-02-11T01:10:05.538Z,103357.97
2023-02-11T01:12:27.183Z,103367.38
2023-02-11T01:14:48.886Z,103356.63
2023-02-11T01:17:12.864Z,103377.75
2023-02-11T01:19:34.470Z,103378.84
2023-02-11T01:21:56.070Z,103384.31
2023-02-11T01:24:17.705Z,103370.84
2023-02-11T01:26:39.312Z,103376.84
2023-02-11T01:29:01.194Z,103370.53
2023-02-11T01:31:22.912Z,103361.78
2023-02-11T01:33:44.599Z,103337.94
2023-02-11T01:36:07.865Z,103339.03
2023-02-11T01:38:30.058Z,103347.81
2023-02-11T01:41:00.894Z,103339.59
2023-02-11T01:43:28.167Z,103324.47
2023-02-11T01:46:34.369Z,103310.75
2023-02-11T01:49:04.418Z,103296.13
2023-02-11T01:51:36.505Z,103307.13
2023-02-11T01:54:18.352Z,103303.19
2023-02-11T01:57:07.786Z,103303.94
2023-02-11T01:59:47.951Z,103308.59
2023-02-11T02:02:17.395Z,103300.13
2023-02-11T02:04:55.254Z,103307.28
2023-02-11T02:07:32.652Z,103328.06
2023-02-11T02:10:08.152Z,103347.25
2023-02-11T02:12:31.102Z,103354.38
2023-02-11T02:15:09.178Z,103350.00
2023-02-11T02:17:46.158Z,103329.22
2023-02-11T02:20:32.506Z,103334.44
2023-02-11T02:23:16.122Z,103341.84
2023-02-11T02:26:27.177Z,103319.34
2023-02-11T02:29:25.390Z,103312.16
2023-02-11T02:32:26.763Z,103306.06
2023-02-11T02:35:19.857Z,103307.63
2023-02-11T02:37:59.911Z,103301.91
2023-02-11T02:40:32.351Z,103303.78
2023-02-11T02:42:57.650Z,103304.06
2023-02-11T02:45:19.970Z,103326.22
2023-02-11T02:47:41.600Z,103321.25
2023-02-11T02:50:07.735Z,103320.16
2023-02-11T02:52:47.343Z,103328.97
2023-02-11T02:55:33.833Z,103329.78
2023-02-11T02:58:35.636Z,103325.13
2023-02-11T03:01:23.010Z,103318.34
2023-02-11T03:04:38.580Z,103309.78
2023-02-11T03:07:22.377Z,103300.72
2023-02-11T03:09:55.122Z,103299.31
2023-02-11T03:12:17.935Z,103301.72
2023-02-11T03:14:41.790Z,103298.38
2023-02-11T03:17:07.838Z,103307.09
2023-02-11T03:19:37.587Z,103307.94
2023-02-11T03:22:00.740Z,103306.28
2023-02-11T03:24:38.304Z,103304.28
2023-02-11T03:27:15.157Z,103300.72
2023-02-11T03:30:14.800Z,103303.47
2023-02-11T03:32:49.271Z,103313.00
2023-02-11T03:35:21.520Z,103305.84
2023-02-11T03:37:54.293Z,103307.16
2023-02-11T03:40:24.925Z,103309.91
2023-02-11T03:42:58.943Z,103310.50
2023-02-11T03:45:24.759Z,103295.38
2023-02-11T03:47:57.660Z,103304.69
2023-02-11T03:50:22.111Z,103304.44
2023-02-11T03:52:45.152Z,103287.06
2023-02-11T03:55:17.353Z,103284.34
2023-02-11T03:57:39.297Z,103276.84
2023-02-11T04:00:01.338Z,103284.50
2023-02-11T04:02:38.174Z,103285.00
2023-02-11T04:05:00.341Z,103283.56
2023-02-11T04:07:22.207Z,103273.44
2023-02-11T04:09:43.804Z,103274.25
2023-02-11T04:12:05.798Z,103259.75
2023-02-11T04:14:27.470Z,103269.88
2023-02-11T04:16:49.027Z,103268.22
2023-02-11T04:19:10.698Z,103275.13
2023-02-11T04:21:32.347Z,103275.13
2023-02-11T04:23:53.878Z,103282.47
2023-02-11T04:26:15.530Z,103283.34
2023-02-11T04:28:37.174Z,103282.47
2023-02-11T04:30:58.963Z,103294.84
2023-02-11T04:33:20.595Z,103291.06
2023-02-11T04:35:42.315Z,103294.84
2023-02-11T04:38:04.018Z,103297.13
2023-02-11T04:40:25.624Z,103301.50
2023-02-11T04:42:47.230Z,103294.13
2023-02-11T04:45:09.360Z,103295.53
2023-02-11T04:47:30.999Z,103286.00
2023-02-11T04:49:52.647Z,103283.00
2023-02-11T04:52:14.356Z,103285.50
2023-02-11T04:54:35.968Z,103291.22
2023-02-11T04:56:57.603Z,103295.88
2023-02-11T04:59:19.220Z,103295.06
2023-02-11T05:01:41.096Z,103298.94
2023-02-11T05:04:02.843Z,103287.16
2023-02-11T05:06:25.069Z,103288.25
2023-02-11T05:08:46.751Z,103290.72
2023-02-11T05:11:16.998Z,103285.00
2023-02-11T05:13:38.695Z,103296.47
2023-02-11T05:16:01.145Z,103296.78
2023-02-11T05:18:24.014Z,103293.00
2023-02-11T05:20:45.672Z,103285.59
2023-02-11T05:23:07.777Z,103285.59
2023-02-11T05:25:29.422Z,103272.72
2023-02-11T05:27:51.142Z,103273.31
2023-02-11T05:30:13.160Z,103271.63
2023-02-11T05:32:34.779Z,103277.69
2023-02-11T05:34:56.522Z,103273.63
2023-02-11T05:37:18.306Z,103285.69
2023-02-11T05:39:39.996Z,103273.91
2023-02-11T05:42:01.674Z,103268.75
2023-02-11T05:44:23.346Z,103270.41
2023-02-11T05:46:45.071Z,103281.38
2023-02-11T05:49:06.718Z,103283.84
2023-02-11T05:51:28.433Z,103280.03
2023-02-11T05:53:50.016Z,103280.88
2023-02-11T05:56:12.469Z,103286.13
2023-02-11T05:58:34.211Z,103286.66
2023-02-11T06:00:56.528Z,103288.34
2023-02-11T06:03:18.290Z,103284.50
2023-02-11T06:05:42.042Z,103288.94
2023-02-11T06:08:03.811Z,103279.84
2023-02-11T06:10:25.960Z,103286.19
2023-02-11T06:12:47.761Z,103294.16
2023-02-11T06:15:09.628Z,103298.88
2023-02-11T06:17:34.072Z,103306.59
2023-02-11T06:19:55.612Z,103301.03
2023-02-11T06:22:17.447Z,103306.28
2023-02-11T06:24:59.812Z,103296.72
2023-02-11T06:27:21.040Z,103296.22
2023-02-11T06:29:42.672Z,103297.31
2023-02-11T06:32:04.522Z,103299.25
2023-02-11T06:34:27.356Z,103301.97
2023-02-11T06:36:48.976Z,103312.09
2023-02-11T06:39:13.087Z,103308.88
2023-02-11T06:41:34.842Z,103300.06
2023-02-11T06:43:56.554Z,103305.19
2023-02-11T06:46:18.255Z,103295.31
2023-02-11T06:48:41.661Z,103301.41
2023-02-11T06:51:09.529Z,103291.75
2023-02-11T06:53:35.480Z,103295.09
2023-02-11T06:56:01.705Z,103300.06
2023-02-11T06:58:23.323Z,103301.13
2023-02-11T07:00:45.034Z,103308.03
2023-02-11T07:03:06.714Z,103318.75
2023-02-11T07:05:28.495Z,103320.41
2023-02-11T07:07:50.148Z,103308.88
2023-02-11T07:10:11.850Z,103313.84
2023-02-11T07:12:33.456Z,103315.25
2023-02-11T07:14:57.016Z,103316.66
2023-02-11T07:17:18.624Z,103326.00
2023-02-11T07:19:40.266Z,103332.31
2023-02-11T07:22:01.885Z,103326.81
2023-02-11T07:24:23.512Z,103330.16
2023-02-11T07:26:45.240Z,103323.81
2023-02-11T07:29:07.152Z,103328.47
2023-02-11T07:31:30.845Z,103331.19
2023-02-11T07:33:56.091Z,103338.94
2023-02-11T07:36:17.811Z,103332.13
2023-02-11T07:38:40.355Z,103337.03
2023-02-11T07:41:07.894Z,103337.28
2023-02-11T07:43:31.007Z,103339.28
2023-02-11T07:45:52.965Z,103343.09
2023-02-11T07:48:14.714Z,103354.91
2023-02-11T07:50:36.373Z,103354.41
2023-02-11T07:52:57.941Z,103353.88
2023-02-11T07:55:19.582Z,103348.75
2023-02-11T07:57:41.288Z,103352.06
2023-02-11T08:00:05.520Z,103346.59
2023-02-11T08:02:32.322Z,103352.41
2023-02-11T08:04:53.935Z,103350.00
2023-02-11T08:07:18.048Z,103349.41
2023-02-11T08:09:39.629Z,103355.22
2023-02-11T08:12:01.580Z,103354.97
2023-02-11T08:14:25.143Z,103352.22
2023-02-11T08:16:46.798Z,103361.59
2023-02-11T08:19:14.730Z,103366.53
2023-02-11T08:21:36.356Z,103367.34
2023-02-11T08:23:58.089Z,103365.44
2023-02-11T08:26:29.802Z,103367.34
2023-02-11T08:28:54.282Z,103372.25
2023-02-11T08:31:19.175Z,103367.00
2023-02-11T08:33:41.673Z,103363.22
2023-02-11T08:36:14.166Z,103367.66
2023-02-11T08:38:35.873Z,103360.03
2023-02-11T08:41:00.764Z,103366.09
2023-02-11T08:43:23.599Z,103367.19
2023-02-11T08:45:45.288Z,103376.25
2023-02-11T08:48:06.966Z,103372.75
2023-02-11T08:50:28.565Z,103367.06
2023-02-11T08:52:51.845Z,103377.28
2023-02-11T08:55:13.559Z,103377.88
2023-02-11T08:57:35.132Z,103379.88
2023-02-11T08:59:56.856Z,103382.94
2023-02-11T09:02:18.664Z,103385.78
2023-02-11T09:04:41.299Z,103386.41
2023-02-11T09:07:04.755Z,103375.44
2023-02-11T09:09:26.429Z,103387.56
2023-02-11T09:11:48.270Z,103388.38
2023-02-11T09:14:22.074Z,103389.53
2023-02-11T09:16:44.259Z,103394.28
2023-02-11T09:19:06.048Z,103411.34
2023-02-11T09:21:28.816Z,103400.94
2023-02-11T09:23:50.590Z,103401.25
2023-02-11T09:26:31.975Z,103400.47
2023-02-11T09:28:53.702Z,103408.47
2023-02-11T09:31:23.606Z,103399.47
2023-02-11T09:33:48.714Z,103400.88
2023-02-11T09:36:10.334Z,103406.47
2023-02-11T09:38:33.012Z,103404.84
2023-02-11T09:40:54.838Z,103406.25
2023-02-11T09:43:22.510Z,103407.41
2023-02-11T09:45:44.154Z,103417.34
2023-02-11T09:48:17.471Z,103411.91
2023-02-11T09:50:44.262Z,103418.47
2023-02-11T09:53:23.986Z,103420.38
2023-02-11T09:55:55.635Z,103421.50
2023-02-11T09:58:27.484Z,103420.69
2023-02-11T10:01:16.451Z,103419.69
2023-02-11T10:04:07.244Z,103435.06
2023-02-11T10:06:45.451Z,103438.16
2023-02-11T10:09:50.607Z,103435.97
2023-02-11T10:12:35.548Z,103445.09
2023-02-11T10:15:21.630Z,103447.84
2023-02-11T10:18:14.359Z,103452.25
2023-02-11T10:21:05.022Z,103454.03
2023-02-11T10:23:33.441Z,103457.13
2023-02-11T10:25:59.037Z,103458.53
2023-02-11T10:28:28.947Z,103459.66
2023-02-11T10:31:02.965Z,103453.13
2023-02-11T10:33:55.192Z,103464.38
2023-02-11T10:36:19.441Z,103468.19
2023-02-11T10:38:41.080Z,103468.94
2023-02-11T10:41:03.170Z,103470.88
2023-02-11T10:43:30.719Z,103470.59
2023-02-11T10:45:56.086Z,103466.78
2023-02-11T10:48:52.868Z,103471.75
2023-02-11T10:51:28.546Z,103467.59
2023-02-11T10:54:21.157Z,103470.88
2023-02-11T10:56:50.833Z,103478.53
2023-02-11T10:59:30.442Z,103473.88
2023-02-11T11:02:21.296Z,103477.19
2023-02-11T11:04:45.169Z,103479.19
2023-02-11T11:07:33.163Z,103492.47
2023-02-11T11:10:06.779Z,103483.97
2023-02-11T11:12:44.494Z,103483.09
2023-02-11T11:15:10.711Z,103493.09
2023-02-11T11:17:32.342Z,103487.41
2023-02-11T11:19:53.901Z,103483.00
2023-02-11T11:22:22.934Z,103488.66
2023-02-11T11:24:46.681Z,103482.25
2023-02-11T11:27:19.545Z,103485.31
2023-02-11T11:29:55.373Z,103483.72
2023-02-11T11:32:27.945Z,103488.78
2023-02-11T11:34:56.660Z,103480.03
2023-02-11T11:37:30.696Z,103481.78
2023-02-11T11:40:22.657Z,103488.16
2023-02-11T11:42:44.478Z,103474.41
2023-02-11T11:45:15.222Z,103471.97
2023-02-11T11:48:00.409Z,103474.72
2023-02-11T11:50:41.676Z,103471.13
2023-02-11T11:53:29.571Z,103473.63
2023-02-11T11:56:03.793Z,103469.25
2023-02-11T11:58:25.554Z,103464.56
2023-02-11T12:01:15.082Z,103465.44
2023-02-11T12:04:05.497Z,103452.25
2023-02-11T12:07:03.779Z,103458.97
2023-02-11T12:09:58.916Z,103458.28
2023-02-11T12:12:43.779Z,103462.47
2023-02-11T12:15:58.982Z,103457.31
2023-02-11T12:18:55.271Z,103465.06
2023-02-11T12:21:53.941Z,103450.75
2023-02-11T12:24:29.534Z,103460.38
2023-02-11T12:27:15.731Z,103454.88
2023-02-11T12:30:19.025Z,103446.03
2023-02-11T12:33:23.011Z,103446.06
2023-02-11T12:35:59.233Z,103448.25
2023-02-11T12:38:54.761Z,103443.88
2023-02-11T12:42:16.123Z,103445.84
2023-02-11T12:45:18.590Z,103442.84
2023-02-11T12:48:13.041Z,103431.25
2023-02-11T12:51:10.244Z,103442.84
2023-02-11T12:53:37.920Z,103438.72
2023-02-11T12:56:12.620Z,103440.66
2023-02-11T12:58:44.904Z,103433.75
2023-02-11T13:01:26.263Z,103427.13
2023-02-11T13:04:06.639Z,103437.06
2023-02-11T13:06:41.818Z,103441.75
2023-02-11T13:09:16.666Z,103443.13
2023-02-11T13:11:43.122Z,103448.94
2023-02-11T13:14:17.273Z,103452.53
2023-02-11T13:16:46.289Z,103440.66
2023-02-11T13:19:14.053Z,103442.34
2023-02-11T13:22:14.648Z,103448.44
2023-02-11T13:24:49.254Z,103442.34
2023-02-11T13:27:36.896Z,103436.00
2023-02-11T13:30:40.722Z,103439.03
2023-02-11T13:33:17.045Z,103436.28
2023-02-11T13:35:43.979Z,103432.94
2023-02-11T13:38:25.456Z,103428.25
2023-02-11T13:41:15.192Z,103429.94
2023-02-11T13:43:37.168Z,103436.56
2023-02-11T13:46:12.827Z,103430.72
2023-02-11T13:48:45.460Z,103427.97
2023-02-11T13:51:12.917Z,103429.91
2023-02-11T13:53:56.437Z,103431.31
2023-02-11T13:56:36.085Z,103437.94
2023-02-11T13:59:02.547Z,103434.34
2023-02-11T14:02:12.532Z,103439.31
2023-02-11T14:04:53.263Z,103446.78
2023-02-11T14:07:45.691Z,103440.69
2023-02-11T14:10:42.110Z,103439.03
2023-02-11T14:13:24.499Z,103433.78
2023-02-11T14:15:46.600Z,103432.09
2023-02-11T14:18:36.318Z,103447.59
2023-02-11T14:21:23.758Z,103449.53
2023-02-11T14:23:46.923Z,103448.41
2023-02-11T14:26:20.866Z,103448.97
2023-02-11T14:28:46.697Z,103447.59
2023-02-11T14:31:18.135Z,103443.72
2023-02-11T14:34:07.897Z,103439.88
2023-02-11T14:37:00.170Z,103442.06
2023-02-11T14:39:40.372Z,103437.94
2023-02-11T14:42:04.347Z,103448.16
2023-02-11T14:44:31.369Z,103446.22
2023-02-11T14:46:55.139Z,103444.84
2023-02-11T14:49:29.245Z,103442.59
2023-02-11T14:51:56.167Z,103446.75
2023-02-11T14:54:25.226Z,103441.22
2023-02-11T14:56:46.947Z,103446.22
2023-02-11T14:59:22.097Z,103440.16
2023-02-11T15:01:50.708Z,103440.41
2023-02-11T15:04:32.979Z,103452.28
2023-02-11T15:06:59.457Z,103447.88
2023-02-11T15:09:48.195Z,103446.19
2023-02-11T15:12:28.439Z,103456.72
2023-02-11T15:14:55.250Z,103454.47
2023-02-11T15:17:23.625Z,103466.06
2023-02-11T15:19:53.149Z,103466.06
2023-02-11T15:22:22.409Z,103469.09
2023-02-11T15:24:44.700Z,103472.97
2023-02-11T15:27:11.785Z,103479.88
2023-02-11T15:29:42.830Z,103487.59
2023-02-11T15:32:17.592Z,103485.66
2023-02-11T15:34:40.145Z,103483.72
2023-02-11T15:37:04.404Z,103488.69
2023-02-11T15:39:36.871Z,103480.94
2023-02-11T15:42:25.134Z,103491.41
2023-02-11T15:44:56.278Z,103494.47
2023-02-11T15:47:22.392Z,103490.84
2023-02-11T15:49:46.803Z,103486.44
2023-02-11T15:52:08.621Z,103485.88
2023-02-11T15:54:32.159Z,103488.06
2023-02-11T15:57:02.495Z,103485.59
2023-02-11T15:59:49.020Z,103484.22
2023-02-11T16:02:31.657Z,103488.63
2023-02-11T16:05:09.165Z,103481.44
2023-02-11T16:07:49.710Z,103483.66
2023-02-11T16:10:30.741Z,103482.50
2023-02-11T16:13:13.694Z,103485.53
2023-02-11T16:15:38.119Z,103482.25
2023-02-11T16:18:02.110Z,103486.63
2023-02-11T16:20:23.752Z,103483.31
2023-02-11T16:22:46.844Z,103486.06
2023-02-11T16:25:20.613Z,103485.50
2023-02-11T16:27:43.158Z,103490.75
2023-02-11T16:30:07.102Z,103482.72
2023-02-11T16:32:30.449Z,103487.97
2023-02-11T16:34:57.825Z,103484.63
2023-02-11T16:37:19.578Z,103489.03
2023-02-11T16:39:41.261Z,103487.41
2023-02-11T16:42:06.421Z,103486.28
2023-02-11T16:44:29.772Z,103492.31
2023-02-11T16:46:52.769Z,103493.69
2023-02-11T16:49:27.745Z,103501.13
2023-02-11T16:51:51.618Z,103500.84
2023-02-11T16:54:16.272Z,103502.47
2023-02-11T16:56:37.858Z,103498.88
2023-02-11T16:58:59.550Z,103509.38
2023-02-11T17:01:21.333Z,103508.53
2023-02-11T17:03:43.824Z,103505.78
2023-02-11T17:06:10.411Z,103506.06
2023-02-11T17:08:32.014Z,103506.88
2023-02-11T17:10:53.938Z,103508.78
2023-02-11T17:13:15.853Z,103517.31
2023-02-11T17:15:37.493Z,103517.56
2023-02-11T17:17:59.361Z,103526.69
2023-02-11T17:20:21.265Z,103527.78
2023-02-11T17:22:42.942Z,103539.34
2023-02-11T17:25:04.768Z,103542.88
2023-02-11T17:27:26.426Z,103529.66
2023-02-11T17:29:48.012Z,103535.34
2023-02-11T17:32:09.752Z,103539.16
2023-02-11T17:34:32.381Z,103542.41
2023-02-11T17:36:54.092Z,103542.66
2023-02-11T17:39:16.323Z,103544.53
2023-02-11T17:41:40.090Z,103549.47
2023-02-11T17:44:01.752Z,103550.88
2023-02-11T17:46:23.668Z,103549.81
2023-02-11T17:48:45.734Z,103547.56
2023-02-11T17:51:25.813Z,103548.94
2023-02-11T17:53:47.621Z,103551.38
2023-02-11T17:56:10.251Z,103552.72
2023-02-11T17:58:32.313Z,103554.09
2023-02-11T18:00:59.049Z,103551.84
2023-02-11T18:03:20.669Z,103559.78
2023-02-11T18:05:42.392Z,103557.00
2023-02-11T18:08:06.508Z,103552.84
2023-02-11T18:10:28.486Z,103562.16
2023-02-11T18:12:50.150Z,103560.47
2023-02-11T18:15:12.332Z,103567.34
2023-02-11T18:17:33.991Z,103575.84
2023-02-11T18:19:57.496Z,103575.84
2023-02-11T18:22:19.117Z,103580.81
2023-02-11T18:24:41.986Z,103578.31
2023-02-11T18:27:03.652Z,103581.88
2023-02-11T18:29:26.183Z,103582.97
2023-02-11T18:31:47.848Z,103584.06
2023-02-11T18:34:10.708Z,103589.59
2023-02-11T18:36:33.809Z,103590.72
2023-02-11T18:38:57.034Z,103586.81
2023-02-11T18:41:18.688Z,103595.06
2023-02-11T18:43:40.778Z,103599.22
2023-02-11T18:46:09.369Z,103603.66
2023-02-11T18:48:30.969Z,103594.56
2023-02-11T18:50:54.353Z,103595.41
2023-02-11T18:53:16.004Z,103594.03
2023-02-11T18:55:43.047Z,103591.53
2023-02-11T18:58:04.632Z,103594.81
2023-02-11T19:00:27.980Z,103599.50
2023-02-11T19:02:49.675Z,103599.75
2023-02-11T19:05:11.810Z,103607.19
2023-02-11T19:07:33.600Z,103607.44
2023-02-11T19:09:55.193Z,103600.00
2023-02-11T19:12:16.947Z,103606.06
2023-02-11T19:14:38.790Z,103607.75
2023-02-11T19:17:04.913Z,103602.25
2023-02-11T19:19:30.534Z,103606.94
2023-02-11T19:21:52.367Z,103622.88
2023-02-11T19:24:18.788Z,103615.44
2023-02-11T19:26:40.366Z,103616.25
2023-02-11T19:29:02.413Z,103625.34
2023-02-11T19:31:24.481Z,103619.84
2023-02-11T19:33:46.959Z,103626.44
2023-02-11T19:36:16.112Z,103628.09
2023-02-11T19:38:38.428Z,103622.34
2023-02-11T19:41:00.170Z,103632.25
2023-02-11T19:43:22.544Z,103634.75
2023-02-11T19:45:44.206Z,103643.59
2023-02-11T19:48:05.981Z,103639.75
2023-02-11T19:50:27.604Z,103649.09
2023-02-11T19:52:49.311Z,103655.44
2023-02-11T19:55:10.970Z,103652.44
2023-02-11T19:57:32.739Z,103658.75
2023-02-11T19:59:55.032Z,103665.09
2023-02-11T20:02:16.708Z,103663.44
2023-02-11T20:04:39.458Z,103666.78
2023-02-11T20:07:01.177Z,103667.59
2023-02-11T20:09:22.887Z,103669.25
2023-02-11T20:11:44.830Z,103673.94
2023-02-11T20:14:06.886Z,103669.78
2023-02-11T20:16:47.024Z,103672.78
2023-02-11T20:19:14.814Z,103678.81
2023-02-11T20:21:36.409Z,103684.56
2023-02-11T20:23:59.373Z,103682.91
2023-02-11T20:26:28.483Z,103679.31
2023-02-11T20:28:52.680Z,103686.47
2023-02-11T20:31:16.306Z,103689.81
2023-02-11T20:33:39.158Z,103688.72
2023-02-11T20:36:05.022Z,103689.28
2023-02-11T20:38:27.201Z,103689.28
2023-02-11T20:40:49.373Z,103690.97
2023-02-11T20:43:10.990Z,103696.19
2023-02-11T20:45:35.309Z,103695.13
2023-02-11T20:47:56.986Z,103699.81
2023-02-11T20:50:19.507Z,103695.13
2023-02-11T20:52:41.223Z,103700.34
2023-02-11T20:55:02.854Z,103698.19
2023-02-11T20:57:24.473Z,103699.88
2023-02-11T20:59:46.208Z,103702.34
2023-02-11T21:02:10.305Z,103704.28
2023-02-11T21:04:32.655Z,103704.28
2023-02-11T21:06:58.972Z,103712.53
2023-02-11T21:09:29.112Z,103711.72
2023-02-11T21:11:53.095Z,103714.72
2023-02-11T21:14:15.788Z,103724.31
2023-02-11T21:16:38.494Z,103719.09
2023-02-11T21:19:00.651Z,103722.91
2023-02-11T21:21:23.087Z,103722.09
2023-02-11T21:23:45.554Z,103731.69
2023-02-11T21:26:08.857Z,103725.59
2023-02-11T21:28:30.577Z,103736.84
2023-02-11T21:30:57.149Z,103737.72
2023-02-11T21:33:19.152Z,103724.44
2023-02-11T21:35:40.754Z,103733.56
2023-02-11T21:38:03.059Z,103737.38
2023-02-11T21:40:27.427Z,103743.13
2023-02-11T21:42:49.061Z,103745.03
2023-02-11T21:45:10.762Z,103739.53
2023-02-11T21:47:32.707Z,103746.97
2023-02-11T21:49:54.364Z,103753.56
2023-02-11T21:52:16.080Z,103754.66
2023-02-11T21:54:37.654Z,103756.56
2023-02-11T21:57:02.936Z,103758.50
2023-02-11T21:59:24.559Z,103760.44
2023-02-11T22:01:46.562Z,103751.31
2023-02-11T22:04:09.488Z,103756.25
2023-02-11T22:06:34.659Z,103753.16
2023-02-11T22:08:57.534Z,103751.53
2023-02-11T22:11:20.248Z,103744.59
2023-02-11T22:13:42.772Z,103744.84
2023-02-11T22:16:09.498Z,103757.78
2023-02-11T22:18:32.217Z,103744.25
2023-02-11T22:21:11.908Z,103737.94
2023-02-11T22:23:34.294Z,103750.53
2023-02-11T22:25:57.285Z,103749.94
2023-02-11T22:28:19.000Z,103756.31
2023-02-11T22:30:40.649Z,103743.88
2023-02-11T22:33:04.085Z,103751.88
2023-02-11T22:35:25.754Z,103760.94
2023-02-11T22:37:47.351Z,103755.72
2023-02-11T22:40:09.485Z,103759.28
2023-02-11T22:42:31.077Z,103756.53
2023-02-11T22:44:52.748Z,103760.38
2023-02-11T22:47:14.303Z,103759.53
2023-02-11T22:49:36.015Z,103757.06
2023-02-11T22:51:57.793Z,103760.03
2023-02-11T22:54:19.433Z,103762.78
2023-02-11T22:56:41.559Z,103760.28
2023-02-11T22:59:08.578Z,103757.53
2023-02-11T23:01:31.669Z,103764.97
2023-02-11T23:03:53.438Z,103762.22
2023-02-11T23:06:15.640Z,103760.56
2023-02-11T23:08:39.975Z,103769.63
2023-02-11T23:11:13.043Z,103763.91
2023-02-11T23:13:38.349Z,103766.31
2023-02-11T23:16:07.549Z,103762.13
2023-02-11T23:18:29.205Z,103772.31
2023-02-11T23:20:50.840Z,103766.81
2023-02-11T23:23:12.614Z,103768.75
2023-02-11T23:25:34.639Z,103758.56
2023-02-11T23:27:56.354Z,103765.72
2023-02-11T23:30:18.701Z,103766.56
2023-02-11T23:32:40.835Z,103769.81
2023-02-11T23:35:02.470Z,103770.66
2023-02-11T23:37:24.148Z,103777.00
2023-02-11T23:39:45.797Z,103770.66
2023-02-11T23:42:07.443Z,103773.97
2023-02-11T23:44:29.181Z,103767.91
2023-02-11T23:46:50.894Z,103769.56
2023-02-11T23:49:13.064Z,103764.06
2023-02-11T23:51:34.756Z,103771.22
2023-02-11T23:53:56.495Z,103776.72
2023-02-11T23:56:27.683Z,103768.47
2023-02-11T23:58:51.385Z,103776.47
